createdAt,value
2022-10-07T00:00:52.623Z,80.76
2022-10-07T00:03:22.347Z,81.12
2022-10-07T00:06:03.373Z,80.65
2022-10-07T00:08:31.076Z,81.19
2022-10-07T00:10:58.023Z,81.19
2022-10-07T00:13:25.456Z,81.15
2022-10-07T00:15:52.398Z,81.14
2022-10-07T00:18:19.342Z,80.99
2022-10-07T00:20:46.051Z,82.28
2022-10-07T00:23:12.849Z,82.82
2022-10-07T00:25:39.775Z,83.61
2022-10-07T00:28:06.808Z,83.67
2022-10-07T00:30:33.731Z,83.48
2022-10-07T00:33:00.764Z,83.46
2022-10-07T00:35:28.550Z,83.11
2022-10-07T00:37:54.976Z,82.96
2022-10-07T00:40:21.489Z,83.42
2022-10-07T00:42:47.963Z,83.39
2022-10-07T00:45:17.693Z,83.26
2022-10-07T00:47:47.183Z,83.05
2022-10-07T00:50:29.435Z,83.23
2022-10-07T00:52:59.617Z,82.88
2022-10-07T00:55:29.790Z,82.28
2022-10-07T00:58:01.351Z,82.74
2022-10-07T01:00:28.278Z,82.59
2022-10-07T01:02:54.838Z,82.14
2022-10-07T01:05:21.519Z,82.53
2022-10-07T01:07:50.585Z,82.10
2022-10-07T01:10:20.155Z,82.05
2022-10-07T01:13:09.081Z,82.63
2022-10-07T01:15:42.038Z,82.62
2022-10-07T01:18:16.858Z,83.81
2022-10-07T01:20:49.397Z,83.08
2022-10-07T01:23:40.773Z,83.35
2022-10-07T01:26:27.340Z,82.69
2022-10-07T01:29:11.081Z,82.49
2022-10-07T01:31:48.803Z,82.69
2022-10-07T01:34:17.173Z,82.44
2022-10-07T01:36:50.924Z,82.43
2022-10-07T01:39:24.277Z,82.67
2022-10-07T01:41:51.367Z,82.77
2022-10-07T01:44:17.957Z,82.81
2022-10-07T01:46:44.730Z,82.57
2022-10-07T01:49:11.795Z,82.54
2022-10-07T01:51:55.369Z,82.34
2022-10-07T01:54:33.629Z,82.55
2022-10-07T01:57:18.496Z,82.11
2022-10-07T02:00:06.910Z,82.34
2022-10-07T02:03:18.425Z,82.75
2022-10-07T02:05:58.409Z,82.56
2022-10-07T02:08:39.876Z,82.47
2022-10-07T02:11:25.768Z,82.34
2022-10-07T02:14:20.129Z,82.27
2022-10-07T02:17:10.099Z,82.34
2022-10-07T02:19:41.335Z,82.43
2022-10-07T02:22:10.362Z,82.93
2022-10-07T02:24:38.931Z,82.71
2022-10-07T02:27:12.233Z,82.60
2022-10-07T02:29:42.972Z,82.98
2022-10-07T02:32:19.613Z,82.98
2022-10-07T02:34:54.732Z,83.25
2022-10-07T02:37:30.471Z,82.73
2022-10-07T02:39:57.980Z,83.51
2022-10-07T02:42:33.625Z,83.43
2022-10-07T02:45:09.212Z,83.00
2022-10-07T02:47:45.587Z,83.59
2022-10-07T02:50:17.519Z,83.67
2022-10-07T02:52:45.393Z,83.46
2022-10-07T02:55:16.400Z,83.76
2022-10-07T02:57:50.137Z,83.42
2022-10-07T03:00:18.897Z,83.61
2022-10-07T03:02:54.195Z,83.83
2022-10-07T03:05:26.034Z,83.83
2022-10-07T03:08:02.477Z,83.98
2022-10-07T03:10:31.354Z,83.79
2022-10-07T03:12:58.009Z,84.21
2022-10-07T03:15:25.938Z,84.43
2022-10-07T03:17:53.671Z,84.31
2022-10-07T03:20:20.159Z,84.38
2022-10-07T03:22:46.820Z,84.46
2022-10-07T03:25:17.110Z,84.90
2022-10-07T03:27:43.964Z,85.17
2022-10-07T03:30:11.605Z,85.91
2022-10-07T03:32:40.691Z,86.06
2022-10-07T03:35:09.049Z,85.99
2022-10-07T03:37:36.367Z,86.26
2022-10-07T03:40:05.495Z,86.43
2022-10-07T03:42:32.297Z,85.95
2022-10-07T03:44:59.370Z,85.68
2022-10-07T03:47:27.401Z,85.91
2022-10-07T03:49:54.710Z,85.79
2022-10-07T03:52:21.243Z,86.17
2022-10-07T03:54:47.851Z,86.07
2022-10-07T03:57:32.987Z,85.91
2022-10-07T04:00:00.513Z,85.74
2022-10-07T04:02:27.878Z,85.62
2022-10-07T04:04:55.427Z,85.79
2022-10-07T04:07:23.418Z,84.83
2022-10-07T04:09:51.291Z,84.84
2022-10-07T04:12:17.778Z,85.56
2022-10-07T04:14:44.928Z,85.25
2022-10-07T04:17:11.385Z,85.69
2022-10-07T04:19:37.998Z,85.56
2022-10-07T04:22:08.956Z,85.33
2022-10-07T04:24:37.133Z,85.39
2022-10-07T04:27:07.484Z,84.97
2022-10-07T04:29:39.033Z,85.11
2022-10-07T04:32:06.468Z,84.89
2022-10-07T04:34:33.495Z,84.95
2022-10-07T04:37:01.087Z,85.19
2022-10-07T04:39:48.891Z,84.60
2022-10-07T04:42:34.520Z,85.11
2022-10-07T04:45:00.994Z,85.02
2022-10-07T04:47:28.826Z,85.05
2022-10-07T04:49:55.725Z,84.49
2022-10-07T04:52:22.401Z,84.83
2022-10-07T04:54:49.137Z,84.81
2022-10-07T04:57:15.740Z,84.78
2022-10-07T04:59:43.652Z,84.58
2022-10-07T05:02:14.336Z,84.59
2022-10-07T05:04:44.135Z,84.90
2022-10-07T05:07:11.151Z,84.63
2022-10-07T05:09:38.459Z,84.89
2022-10-07T05:12:06.191Z,84.51
2022-10-07T05:14:33.712Z,84.56
2022-10-07T05:17:01.286Z,84.83
2022-10-07T05:19:32.190Z,84.63
2022-10-07T05:21:59.283Z,84.86
2022-10-07T05:24:26.789Z,85.29
2022-10-07T05:26:54.373Z,85.61
2022-10-07T05:29:21.384Z,85.84
2022-10-07T05:31:51.274Z,85.88
2022-10-07T05:34:21.452Z,85.82
2022-10-07T05:36:48.007Z,85.89
2022-10-07T05:39:14.599Z,85.71
2022-10-07T05:41:49.046Z,85.64
2022-10-07T05:44:18.908Z,86.15
2022-10-07T05:46:47.508Z,86.09
2022-10-07T05:49:15.703Z,85.66
2022-10-07T05:51:42.423Z,85.36
2022-10-07T05:54:09.387Z,85.43
2022-10-07T05:56:40.115Z,85.66
2022-10-07T05:59:10.505Z,85.58
2022-10-07T06:01:42.827Z,85.34
2022-10-07T06:04:14.079Z,85.41
2022-10-07T06:06:43.981Z,85.11
2022-10-07T06:09:30.883Z,84.99
2022-10-07T06:12:18.741Z,84.89
2022-10-07T06:14:46.856Z,85.25
2022-10-07T06:17:13.382Z,84.73
2022-10-07T06:19:41.653Z,85.25
2022-10-07T06:22:09.129Z,84.69
2022-10-07T06:24:37.435Z,85.09
2022-10-07T06:27:05.496Z,84.90
2022-10-07T06:29:32.126Z,84.85
2022-10-07T06:31:59.686Z,84.94
2022-10-07T06:34:27.014Z,84.83
2022-10-07T06:36:55.553Z,84.91
2022-10-07T06:39:22.712Z,85.29
2022-10-07T06:41:52.925Z,84.89
2022-10-07T06:44:28.299Z,85.04
2022-10-07T06:46:55.808Z,84.78
2022-10-07T06:49:22.594Z,85.01
2022-10-07T06:51:50.770Z,85.06
2022-10-07T06:54:17.298Z,85.21
2022-10-07T06:56:44.427Z,84.87
2022-10-07T06:59:10.924Z,85.32
2022-10-07T07:01:51.865Z,84.97
2022-10-07T07:04:18.664Z,84.73
2022-10-07T07:06:46.268Z,85.39
2022-10-07T07:09:12.782Z,85.07
2022-10-07T07:11:43.479Z,84.79
2022-10-07T07:14:19.986Z,85.03
2022-10-07T07:16:57.266Z,85.28
2022-10-07T07:19:25.888Z,84.92
2022-10-07T07:21:53.963Z,84.74
2022-10-07T07:24:22.964Z,85.13
2022-10-07T07:26:49.434Z,84.85
2022-10-07T07:29:16.580Z,84.72
2022-10-07T07:31:49.787Z,84.55
2022-10-07T07:34:17.291Z,84.84
2022-10-07T07:36:48.224Z,84.68
2022-10-07T07:39:17.584Z,84.22
2022-10-07T07:41:50.774Z,84.05
2022-10-07T07:44:20.391Z,83.73
2022-10-07T07:46:51.284Z,83.43
2022-10-07T07:49:20.900Z,82.20
2022-10-07T07:51:47.715Z,81.67
2022-10-07T07:54:24.900Z,81.57
2022-10-07T07:56:51.415Z,81.75
2022-10-07T07:59:20.054Z,81.66
2022-10-07T08:01:49.033Z,81.67
2022-10-07T08:04:16.649Z,80.78
2022-10-07T08:06:43.484Z,80.57
2022-10-07T08:09:10.179Z,79.96
2022-10-07T08:11:37.800Z,79.48
2022-10-07T08:14:04.601Z,78.60
2022-10-07T08:16:34.518Z,77.77
2022-10-07T08:19:01.153Z,77.06
2022-10-07T08:21:33.007Z,76.48
2022-10-07T08:24:03.806Z,76.49
2022-10-07T08:26:34.823Z,75.97
2022-10-07T08:29:04.686Z,74.51
2022-10-07T08:31:33.390Z,74.44
2022-10-07T08:34:03.013Z,73.95
2022-10-07T08:36:33.108Z,73.93
2022-10-07T08:39:01.128Z,74.08
2022-10-07T08:41:33.051Z,73.55
2022-10-07T08:44:20.765Z,73.26
2022-10-07T08:47:18.146Z,71.85
2022-10-07T08:50:09.825Z,71.19
2022-10-07T08:52:39.219Z,70.91
2022-10-07T08:55:24.439Z,71.17
2022-10-07T08:58:05.523Z,71.55
2022-10-07T09:00:50.602Z,71.66
2022-10-07T09:03:35.950Z,71.02
2022-10-07T09:06:13.845Z,69.68
2022-10-07T09:08:44.969Z,69.04
2022-10-07T09:11:20.035Z,69.64
2022-10-07T09:13:54.433Z,70.14
2022-10-07T09:16:32.366Z,69.17
2022-10-07T09:19:02.959Z,68.43
2022-10-07T09:21:42.334Z,68.65
2022-10-07T09:24:24.719Z,68.68
2022-10-07T09:26:56.758Z,68.79
2022-10-07T09:29:26.811Z,67.80
2022-10-07T09:31:54.001Z,67.55
2022-10-07T09:34:29.758Z,67.93
2022-10-07T09:37:11.585Z,66.26
2022-10-07T09:39:38.820Z,67.23
2022-10-07T09:42:30.894Z,66.80
2022-10-07T09:45:02.367Z,66.90
2022-10-07T09:47:36.872Z,66.03
2022-10-07T09:50:04.118Z,66.33
2022-10-07T09:52:32.373Z,65.68
2022-10-07T09:55:28.682Z,65.51
2022-10-07T09:58:04.023Z,64.83
2022-10-07T10:00:30.777Z,64.75
2022-10-07T10:03:07.601Z,64.60
2022-10-07T10:06:02.543Z,64.12
2022-10-07T10:08:34.585Z,64.09
2022-10-07T10:11:04.444Z,62.99
2022-10-07T10:13:38.334Z,59.51
2022-10-07T10:16:34.415Z,59.91
2022-10-07T10:19:03.789Z,60.12
2022-10-07T10:21:39.605Z,60.04
2022-10-07T10:24:11.899Z,59.13
2022-10-07T10:27:04.558Z,58.24
2022-10-07T10:29:57.269Z,57.77
2022-10-07T10:33:09.689Z,58.15
2022-10-07T10:35:53.719Z,58.01
2022-10-07T10:39:01.322Z,57.25
2022-10-07T10:41:39.090Z,57.58
2022-10-07T10:44:27.192Z,56.81
2022-10-07T10:47:08.713Z,56.87
2022-10-07T10:49:44.212Z,57.08
2022-10-07T10:52:45.229Z,57.37
2022-10-07T10:55:25.781Z,56.81
2022-10-07T10:58:30.151Z,56.75
2022-10-07T11:01:21.074Z,56.64
2022-10-07T11:03:59.590Z,56.86
2022-10-07T11:06:28.530Z,57.08
2022-10-07T11:08:58.931Z,57.04
2022-10-07T11:11:28.174Z,57.69
2022-10-07T11:14:01.929Z,56.19
2022-10-07T11:16:43.579Z,55.31
2022-10-07T11:19:28.853Z,54.40
2022-10-07T11:21:59.903Z,54.62
2022-10-07T11:24:54.798Z,54.36
2022-10-07T11:27:31.299Z,54.62
2022-10-07T11:30:17.814Z,54.62
2022-10-07T11:33:04.793Z,54.50
2022-10-07T11:35:31.364Z,54.83
2022-10-07T11:38:10.223Z,54.66
2022-10-07T11:40:42.933Z,54.68
2022-10-07T11:43:19.091Z,53.91
2022-10-07T11:45:54.208Z,52.93
2022-10-07T11:48:44.925Z,54.14
2022-10-07T11:51:25.136Z,53.35
2022-10-07T11:53:56.238Z,53.23
2022-10-07T11:56:25.996Z,53.14
2022-10-07T11:59:04.661Z,52.62
2022-10-07T12:01:35.469Z,52.34
2022-10-07T12:04:22.964Z,53.24
2022-10-07T12:07:27.097Z,53.11
2022-10-07T12:10:05.888Z,52.73
2022-10-07T12:12:46.679Z,51.52
2022-10-07T12:15:42.582Z,51.80
2022-10-07T12:18:13.262Z,51.60
2022-10-07T12:20:52.493Z,51.63
2022-10-07T12:23:18.955Z,52.70
2022-10-07T12:25:55.911Z,51.00
2022-10-07T12:28:55.669Z,51.21
2022-10-07T12:31:22.793Z,50.88
2022-10-07T12:34:04.381Z,50.85
2022-10-07T12:36:32.066Z,50.53
2022-10-07T12:39:02.505Z,50.93
2022-10-07T12:41:35.348Z,51.04
2022-10-07T12:44:36.234Z,49.73
2022-10-07T12:47:17.577Z,50.72
2022-10-07T12:49:50.931Z,50.74
2022-10-07T12:52:27.424Z,51.21
2022-10-07T12:54:58.430Z,51.33
2022-10-07T12:57:32.916Z,51.03
2022-10-07T13:00:04.063Z,49.87
2022-10-07T13:02:58.868Z,50.22
2022-10-07T13:06:05.349Z,50.63
2022-10-07T13:09:02.982Z,50.84
2022-10-07T13:12:14.389Z,50.70
2022-10-07T13:15:05.457Z,50.24
2022-10-07T13:17:46.083Z,50.66
2022-10-07T13:20:12.556Z,50.79
2022-10-07T13:22:46.573Z,50.47
2022-10-07T13:25:14.577Z,50.15
2022-10-07T13:27:48.288Z,50.67
2022-10-07T13:30:38.670Z,50.82
2022-10-07T13:33:28.873Z,50.49
2022-10-07T13:36:19.047Z,50.16
2022-10-07T13:38:47.161Z,50.37
2022-10-07T13:41:24.705Z,50.48
2022-10-07T13:43:55.036Z,50.90
2022-10-07T13:46:25.781Z,51.18
2022-10-07T13:48:56.212Z,50.43
2022-10-07T13:51:36.556Z,49.85
2022-10-07T13:54:15.878Z,50.11
2022-10-07T13:56:42.905Z,49.72
2022-10-07T13:59:18.527Z,50.50
2022-10-07T14:01:48.586Z,50.36
2022-10-07T14:04:15.009Z,49.91
2022-10-07T14:06:46.596Z,49.63
2022-10-07T14:09:17.750Z,49.11
2022-10-07T14:11:46.687Z,49.75
2022-10-07T14:14:20.295Z,49.77
2022-10-07T14:16:53.424Z,50.34
2022-10-07T14:19:21.214Z,50.58
2022-10-07T14:21:48.189Z,50.90
2022-10-07T14:24:20.234Z,50.57
2022-10-07T14:26:46.950Z,50.09
2022-10-07T14:29:37.497Z,49.90
2022-10-07T14:32:29.920Z,49.49
2022-10-07T14:35:15.037Z,50.05
2022-10-07T14:37:41.519Z,50.32
2022-10-07T14:40:23.225Z,50.36
2022-10-07T14:42:54.721Z,50.20
2022-10-07T14:45:24.690Z,49.99
2022-10-07T14:47:51.221Z,50.00
2022-10-07T14:50:19.526Z,50.85
2022-10-07T14:52:51.664Z,51.08
2022-10-07T14:55:26.357Z,51.14
2022-10-07T14:57:52.960Z,51.26
2022-10-07T15:00:25.305Z,51.23
2022-10-07T15:02:53.114Z,51.20
2022-10-07T15:05:19.636Z,51.69
2022-10-07T15:07:46.486Z,51.83
2022-10-07T15:10:19.331Z,52.29
2022-10-07T15:12:46.462Z,52.13
2022-10-07T15:15:14.689Z,52.51
2022-10-07T15:17:42.092Z,51.71
2022-10-07T15:20:11.187Z,52.13
2022-10-07T15:22:38.129Z,51.62
2022-10-07T15:25:09.543Z,51.31
2022-10-07T15:27:36.457Z,52.16
2022-10-07T15:30:07.430Z,52.43
2022-10-07T15:32:34.526Z,52.74
2022-10-07T15:35:01.566Z,52.44
2022-10-07T15:37:28.299Z,52.43
2022-10-07T15:39:55.182Z,52.60
2022-10-07T15:42:24.890Z,53.37
2022-10-07T15:44:52.368Z,53.24
2022-10-07T15:47:19.122Z,53.23
2022-10-07T15:49:45.629Z,53.39
2022-10-07T15:52:12.267Z,54.34
2022-10-07T15:54:39.506Z,54.49
2022-10-07T15:57:08.268Z,55.14
2022-10-07T15:59:35.639Z,54.94
2022-10-07T16:02:05.725Z,55.70
2022-10-07T16:04:32.973Z,55.88
2022-10-07T16:06:59.814Z,56.15
2022-10-07T16:09:27.092Z,56.92
2022-10-07T16:11:53.984Z,57.11
2022-10-07T16:14:20.405Z,57.82
2022-10-07T16:16:46.933Z,57.88
2022-10-07T16:19:13.818Z,57.99
2022-10-07T16:21:42.469Z,58.35
2022-10-07T16:24:12.905Z,58.69
2022-10-07T16:26:39.879Z,58.69
2022-10-07T16:29:30.463Z,58.90
2022-10-07T16:31:59.085Z,59.44
2022-10-07T16:34:27.986Z,60.01
2022-10-07T16:36:55.679Z,59.75
2022-10-07T16:39:22.517Z,60.48
2022-10-07T16:41:52.044Z,60.56
2022-10-07T16:44:19.919Z,61.07
2022-10-07T16:46:46.632Z,61.31
2022-10-07T16:49:18.094Z,61.66
2022-10-07T16:51:45.850Z,62.02
2022-10-07T16:54:17.663Z,62.14
2022-10-07T16:56:47.032Z,62.36
2022-10-07T16:59:21.897Z,62.49
2022-10-07T17:01:55.361Z,63.26
2022-10-07T17:04:22.465Z,63.23
2022-10-07T17:06:49.235Z,63.61
2022-10-07T17:09:17.328Z,63.84
2022-10-07T17:11:44.073Z,63.59
2022-10-07T17:14:18.943Z,63.82
2022-10-07T17:16:51.079Z,64.15
2022-10-07T17:19:19.784Z,64.50
2022-10-07T17:21:47.853Z,64.70
2022-10-07T17:24:15.567Z,64.57
2022-10-07T17:26:42.692Z,65.08
2022-10-07T17:29:12.009Z,65.39
2022-10-07T17:31:41.626Z,65.30
2022-10-07T17:34:08.990Z,65.62
2022-10-07T17:36:35.682Z,65.61
2022-10-07T17:39:02.453Z,65.62
2022-10-07T17:41:34.618Z,65.95
2022-10-07T17:44:05.957Z,66.42
2022-10-07T17:46:33.378Z,67.15
2022-10-07T17:49:02.248Z,67.69
2022-10-07T17:51:31.159Z,67.57
2022-10-07T17:54:02.460Z,68.30
2022-10-07T17:56:31.875Z,69.48
2022-10-07T17:58:59.115Z,69.21
2022-10-07T18:01:33.899Z,69.16
2022-10-07T18:04:09.858Z,69.37
2022-10-07T18:06:38.464Z,70.09
2022-10-07T18:09:06.786Z,70.34
2022-10-07T18:11:54.777Z,69.89
2022-10-07T18:14:40.026Z,70.10
2022-10-07T18:17:08.722Z,70.60
2022-10-07T18:19:35.574Z,70.94
2022-10-07T18:22:04.569Z,70.97
2022-10-07T18:24:31.153Z,70.88
2022-10-07T18:26:59.774Z,71.13
2022-10-07T18:29:32.061Z,71.10
2022-10-07T18:31:59.091Z,71.23
2022-10-07T18:34:25.988Z,71.35
2022-10-07T18:36:56.245Z,71.56
2022-10-07T18:39:27.910Z,71.61
2022-10-07T18:41:54.886Z,72.38
2022-10-07T18:44:21.750Z,72.46
2022-10-07T18:46:48.588Z,72.20
2022-10-07T18:49:15.064Z,72.53
2022-10-07T18:51:41.619Z,72.95
2022-10-07T18:54:09.792Z,73.02
2022-10-07T18:56:40.826Z,73.12
2022-10-07T18:59:09.915Z,73.01
2022-10-07T19:01:37.718Z,73.73
2022-10-07T19:04:05.690Z,73.77
2022-10-07T19:06:35.320Z,73.88
2022-10-07T19:09:06.499Z,73.85
2022-10-07T19:11:33.579Z,74.52
2022-10-07T19:14:01.216Z,74.66
2022-10-07T19:16:50.916Z,74.63
2022-10-07T19:19:20.561Z,75.23
2022-10-07T19:21:49.461Z,75.33
2022-10-07T19:24:16.507Z,75.79
2022-10-07T19:26:46.000Z,75.85
2022-10-07T19:29:13.823Z,76.60
2022-10-07T19:31:43.754Z,76.66
2022-10-07T19:34:16.001Z,77.48
2022-10-07T19:36:46.856Z,77.63
2022-10-07T19:39:20.191Z,77.50
2022-10-07T19:41:48.099Z,78.28
2022-10-07T19:44:15.177Z,77.94
2022-10-07T19:46:41.708Z,78.27
2022-10-07T19:49:09.405Z,78.59
2022-10-07T19:51:37.278Z,78.83
2022-10-07T19:54:12.920Z,78.61
2022-10-07T19:56:40.869Z,79.14
2022-10-07T19:59:10.209Z,78.69
2022-10-07T20:01:41.341Z,79.16
2022-10-07T20:04:13.303Z,79.10
2022-10-07T20:06:40.403Z,78.70
2022-10-07T20:09:09.193Z,78.82
2022-10-07T20:11:36.329Z,78.63
2022-10-07T20:14:04.739Z,78.82
2022-10-07T20:16:31.601Z,79.17
2022-10-07T20:19:01.623Z,79.08
2022-10-07T20:21:29.032Z,78.89
2022-10-07T20:23:56.554Z,78.62
2022-10-07T20:26:26.891Z,78.81
2022-10-07T20:28:56.060Z,78.62
2022-10-07T20:31:24.867Z,78.50
2022-10-07T20:33:53.538Z,79.20
2022-10-07T20:36:22.360Z,79.12
2022-10-07T20:39:15.921Z,78.90
2022-10-07T20:42:06.366Z,78.75
2022-10-07T20:44:33.232Z,78.98
2022-10-07T20:46:59.881Z,79.51
2022-10-07T20:49:28.609Z,79.09
2022-10-07T20:52:03.530Z,79.06
2022-10-07T20:54:32.599Z,79.30
2022-10-07T20:56:59.494Z,79.35
2022-10-07T20:59:27.854Z,79.62
2022-10-07T21:01:54.785Z,80.07
2022-10-07T21:04:22.183Z,79.67
2022-10-07T21:06:51.220Z,80.33
2022-10-07T21:09:19.199Z,79.86
2022-10-07T21:11:49.725Z,80.30
2022-10-07T21:14:19.722Z,79.93
2022-10-07T21:16:47.636Z,80.36
2022-10-07T21:19:15.301Z,80.06
2022-10-07T21:21:41.899Z,80.84
2022-10-07T21:24:08.688Z,80.44
2022-10-07T21:26:36.426Z,80.79
2022-10-07T21:29:05.006Z,81.30
2022-10-07T21:31:31.555Z,81.46
2022-10-07T21:34:01.917Z,81.27
2022-10-07T21:36:28.536Z,81.32
2022-10-07T21:38:58.552Z,80.83
2022-10-07T21:41:34.418Z,81.26
2022-10-07T21:44:03.174Z,81.45
2022-10-07T21:46:30.773Z,81.67
2022-10-07T21:48:57.750Z,82.25
2022-10-07T21:51:27.044Z,81.89
2022-10-07T21:53:55.298Z,81.67
2022-10-07T21:56:21.729Z,82.17
2022-10-07T21:58:49.490Z,82.09
2022-10-07T22:01:17.832Z,81.88
2022-10-07T22:03:45.187Z,82.11
2022-10-07T22:06:14.827Z,81.62
2022-10-07T22:08:44.002Z,81.37
2022-10-07T22:11:17.243Z,81.50
2022-10-07T22:13:51.609Z,81.37
2022-10-07T22:16:19.086Z,81.39
2022-10-07T22:18:51.027Z,81.34
2022-10-07T22:21:26.778Z,81.47
2022-10-07T22:23:58.210Z,81.44
2022-10-07T22:26:27.922Z,81.67
2022-10-07T22:28:54.945Z,81.46
2022-10-07T22:31:22.751Z,81.70
2022-10-07T22:33:54.719Z,81.77
2022-10-07T22:36:22.106Z,82.27
2022-10-07T22:38:48.549Z,82.71
2022-10-07T22:41:16.582Z,82.77
2022-10-07T22:43:44.735Z,83.19
2022-10-07T22:46:13.501Z,83.17
2022-10-07T22:48:43.134Z,83.57
2022-10-07T22:51:11.884Z,83.27
2022-10-07T22:53:41.002Z,83.28
2022-10-07T22:56:11.274Z,83.14
2022-10-07T22:58:39.962Z,82.97
2022-10-07T23:01:14.325Z,82.68
2022-10-07T23:03:43.969Z,82.27
2022-10-07T23:06:12.737Z,82.49
2022-10-07T23:08:39.776Z,82.39
2022-10-07T23:11:07.523Z,82.36
2022-10-07T23:13:36.380Z,82.15
2022-10-07T23:16:12.034Z,82.07
2022-10-07T23:18:42.533Z,81.73
2022-10-07T23:21:14.366Z,81.53
2022-10-07T23:23:43.400Z,81.57
2022-10-07T23:26:13.323Z,81.51
2022-10-07T23:28:40.498Z,81.53
2022-10-07T23:31:12.074Z,81.36
2022-10-07T23:33:38.867Z,81.30
2022-10-07T23:36:08.965Z,81.15
2022-10-07T23:38:38.909Z,81.49
2022-10-07T23:41:07.181Z,81.30
2022-10-07T23:43:34.473Z,81.25
2022-10-07T23:46:02.257Z,81.22
2022-10-07T23:48:28.967Z,81.23
2022-10-07T23:50:55.439Z,81.27
2022-10-07T23:53:22.580Z,81.17
2022-10-07T23:55:51.610Z,81.25
2022-10-07T23:58:20.357Z,81.11
